Time;durP1;ratioP1;P1;durP2;ratioP2;P2;SDS_P1;SDS_P2;PMS_P1;PMS_P2;Temp;Humidity;BMP_temperature;BMP_pressure;BME280_temperature;BME280_humidity;BME280_pressure;Samples;Min_cycle;Max_cycle;Signal;HPM_P1;HPM_P2
2021/12/21 00:00:15;;;;;;;4.65;1.38;;;;;;;1.40;84.95;102984.94;4975135;28;100907;-41
2021/12/21 00:02:42;;;;;;;2.92;1.92;;;;;;;1.33;85.06;102973.28;4975685;28;101139;-42
2021/12/21 00:05:13;;;;;;;7.20;3.60;;;;;;;1.27;85.39;102971.47;4975789;28;96590;-42
2021/12/21 00:07:39;;;;;;;1.75;1.42;;;;;;;1.26;85.14;102975.03;4975620;28;96753;-42
2021/12/21 00:10:04;;;;;;;3.95;2.17;;;;;;;1.36;85.48;102978.69;4976750;28;99359;-42
2021/12/21 00:12:32;;;;;;;3.65;2.20;;;;;;;1.25;85.27;102965.22;4976766;28;99216;-42
2021/12/21 00:15:05;;;;;;;4.50;2.17;;;;;;;1.27;84.96;102973.25;4975703;28;96585;-42
2021/12/21 00:25:12;;;;;;;1.90;1.45;;;;;;;1.26;85.25;102980.38;4976563;28;96567;-41
2021/12/21 00:27:37;;;;;;;3.97;1.92;;;;;;;1.15;85.09;102965.09;4977135;28;96638;-42
2021/12/21 00:30:03;;;;;;;3.45;2.58;;;;;;;1.23;85.08;102974.97;4976530;28;103024;-42
2021/12/21 00:32:29;;;;;;;1.83;1.40;;;;;;;1.10;85.32;102954.38;4974778;28;102440;-42
2021/12/21 00:34:54;;;;;;;6.35;1.60;;;;;;;1.04;85.11;102949.84;4976739;28;96528;-42
2021/12/21 00:37:22;;;;;;;3.47;1.88;;;;;;;1.15;85.23;102970.44;4976760;28;96693;-42
2021/12/21 00:39:47;;;;;;;1.75;1.48;;;;;;;1.05;85.35;102953.44;4974714;28;101261;-42
2021/12/21 00:42:12;;;;;;;3.88;1.77;;;;;;;1.13;85.23;102970.41;4976732;28;98386;-42
2021/12/21 00:44:38;;;;;;;5.25;2.47;;;;;;;1.09;85.36;102971.25;4976034;28;117119;-42
2021/12/21 00:47:03;;;;;;;3.88;2.20;;;;;;;0.98;85.40;102951.56;4976016;28;96790;-42
2021/12/21 00:49:30;;;;;;;2.95;1.77;;;;;;;1.04;85.37;102949.84;4975955;28;98027;-42
2021/12/21 00:51:55;;;;;;;2.67;2.20;;;;;;;1.04;85.17;102955.16;4974797;28;98964;-42
2021/12/21 00:54:20;;;;;;;1.40;1.17;;;;;;;1.04;85.50;102955.16;4976566;28;96449;-42
2021/12/21 00:56:46;;;;;;;1.92;1.42;;;;;;;0.95;85.38;102944.38;4976263;28;96871;-42
2021/12/21 00:59:11;;;;;;;1.60;1.27;;;;;;;0.94;85.22;102933.72;4975357;28;98931;-42
2021/12/21 01:01:40;;;;;;;4.60;2.33;;;;;;;1.00;85.47;102941.78;4976064;28;97217;-42
2021/12/21 01:04:08;;;;;;;7.25;1.70;;;;;;;0.93;85.42;102937.25;4974898;28;96608;-42
2021/12/21 01:06:45;;;;;;;1.42;1.33;;;;;;;0.93;85.54;102940.81;4975008;28;96942;-42
2021/12/21 01:09:26;;;;;;;3.65;1.77;;;;;;;0.99;85.51;102948.00;4974559;28;100875;-42
2021/12/21 01:11:56;;;;;;;1.50;1.17;;;;;;;0.98;85.25;102952.44;4975840;28;99203;-42
2021/12/21 01:19:42;;;;;;;3.72;1.63;;;;;;;0.80;85.27;102928.19;4973835;28;97330;-42
2021/12/21 01:22:17;;;;;;;2.25;1.50;;;;;;;0.88;85.47;102936.28;4974301;28;101273;-42
2021/12/21 01:30:06;;;;;;;1.10;1.00;;;;;;;0.72;85.40;102925.44;4975729;28;97841;-42
2021/12/21 01:33:18;;;;;;;2.53;2.00;;;;;;;0.77;85.85;102934.41;4976217;28;97869;-42
2021/12/21 01:35:34;;;;;;;5.97;2.78;;;;;;;0.74;85.86;102926.38;4974775;28;96824;-42
2021/12/21 01:38:08;;;;;;;2.63;1.77;;;;;;;0.71;85.64;102917.41;4975966;28;96582;-42
2021/12/21 01:40:51;;;;;;;5.93;1.40;;;;;;;0.68;85.88;102917.38;4973383;28;100792;-42
2021/12/21 01:43:25;;;;;;;3.72;2.08;;;;;;;0.73;85.59;102935.22;4973811;28;101007;-42
2021/12/21 01:51:19;;;;;;;1.85;1.67;;;;;;;0.67;85.61;102919.16;4975042;28;97036;-42
2021/12/21 01:53:47;;;;;;;3.72;1.77;;;;;;;0.73;85.73;102926.34;4973616;28;101377;-43
2021/12/21 01:56:13;;;;;;;2.85;1.35;;;;;;;0.67;85.77;102921.81;4973855;28;96915;-42
2021/12/21 01:58:39;;;;;;;15.20;1.88;;;;;;;0.59;85.62;102902.16;4974236;28;96794;-42
2021/12/21 02:01:11;;;;;;;1.88;1.25;;;;;;;0.74;85.37;102936.13;4975187;28;97883;-42
2021/12/21 02:03:37;;;;;;;4.25;1.35;;;;;;;0.72;85.81;102924.56;4973920;28;101095;-42
2021/12/21 02:06:03;;;;;;;1.50;1.08;;;;;;;0.62;86.10;102905.78;4974865;28;96538;-42
2021/12/21 02:08:29;;;;;;;0.60;0.60;;;;;;;0.68;85.94;102915.59;4973873;28;96822;-42
2021/12/21 02:10:59;;;;;;;1.40;0.73;;;;;;;0.53;85.36;102886.09;4974860;28;99212;-42
2021/12/21 02:13:24;;;;;;;1.55;1.45;;;;;;;0.69;85.55;102916.50;4974825;28;99220;-42
2021/12/21 02:15:50;;;;;;;3.28;1.15;;;;;;;0.66;85.41;102914.69;4973815;28;96591;-42
2021/12/21 02:20:55;;;;;;;1.25;1.00;;;;;;;0.67;85.40;102918.25;4974748;28;98059;-43
2021/12/21 02:23:32;;;;;;;3.90;2.08;;;;;;;0.63;85.45;102909.31;4975374;28;97973;-42
2021/12/21 02:30:55;;;;;;;4.15;2.15;;;;;;;0.57;85.57;102907.47;4973384;28;97974;-42
2021/12/21 02:33:22;;;;;;;0.82;0.68;;;;;;;0.56;85.68;102913.66;4973211;28;100930;-42
2021/12/21 02:35:59;;;;;;;1.60;1.30;;;;;;;0.55;85.35;102905.63;4973749;28;96598;-42
2021/12/21 02:38:28;;;;;;;2.17;1.77;;;;;;;0.50;85.32;102907.34;4973532;28;96895;-42
2021/12/21 02:40:54;;;;;;;3.85;1.40;;;;;;;0.52;85.43;102916.28;4973061;28;100850;-42
2021/12/21 02:43:20;;;;;;;0.43;0.43;;;;;;;0.46;85.42;102914.44;4973318;28;101079;-42
2021/12/21 02:45:46;;;;;;;0.75;0.75;;;;;;;0.47;85.38;102918.00;4974662;28;96496;-42
2021/12/21 02:48:11;;;;;;;2.55;1.75;;;;;;;0.40;85.59;102907.22;4975134;28;96886;-42
2021/12/21 02:50:38;;;;;;;1.92;1.02;;;;;;;0.44;85.27;102923.28;4974732;28;97331;-42
2021/12/21 02:53:04;;;;;;;3.80;1.70;;;;;;;0.29;85.35;102897.31;4974443;28;99340;-42
2021/12/21 02:55:29;;;;;;;2.05;1.27;;;;;;;0.37;85.72;102912.53;4972764;28;96604;-42
2021/12/21 02:57:57;;;;;;;1.50;1.08;;;;;;;0.37;85.55;102916.97;4974471;28;96833;-43
2021/12/21 03:00:25;;;;;;;2.83;1.17;;;;;;;0.24;85.63;102883.00;4972972;28;101374;-42
2021/12/21 03:02:50;;;;;;;0.85;0.77;;;;;;;0.29;85.57;102900.88;4974175;28;98401;-42
2021/12/21 03:05:16;;;;;;;1.67;0.68;;;;;;;0.22;85.46;102900.78;4975115;28;96522;-42
2021/12/21 03:10:15;;;;;;;1.38;0.93;;;;;;;0.20;85.20;102911.41;4973515;28;97561;-42
2021/12/21 03:15:22;;;;;;;6.93;1.42;;;;;;;0.24;85.30;102915.91;4972220;28;96522;-42
2021/12/21 03:17:51;;;;;;;2.08;1.35;;;;;;;0.19;85.37;102914.91;4973233;28;96773;-42
2021/12/21 03:20:17;;;;;;;1.52;1.27;;;;;;;0.12;85.37;102905.03;4973680;28;98000;-42
2021/12/21 03:22:43;;;;;;;3.00;1.15;;;;;;;0.07;85.22;102891.69;4972797;28;100852;-42
2021/12/21 03:25:09;;;;;;;1.05;0.73;;;;;;;0.07;85.29;102890.75;4974640;28;96613;-42
2021/12/21 03:27:35;;;;;;;1.65;1.38;;;;;;;0.07;85.00;102897.00;4974088;28;96925;-42
2021/12/21 03:30:00;;;;;;;2.00;1.80;;;;;;;0.15;85.16;102914.00;4974075;28;99285;-41
2021/12/21 03:32:26;;;;;;;2.60;0.95;;;;;;;0.14;85.55;102906.88;4974252;28;97180;-42
2021/12/21 03:34:51;;;;;;;2.47;1.83;;;;;;;0.01;85.38;102890.69;4974008;28;103174;-42
2021/12/21 03:37:17;;;;;;;3.90;1.50;;;;;;;0.10;85.24;102902.38;4974822;28;96776;-41
2021/12/21 03:39:44;;;;;;;2.72;1.52;;;;;;;0.03;85.02;102892.50;4973981;28;97971;-41
2021/12/21 03:42:12;;;;;;;3.58;2.08;;;;;;;0.14;85.29;102908.63;4974049;28;101336;-41
2021/12/21 03:44:38;;;;;;;0.55;0.55;;;;;;;0.06;85.16;102891.66;4975684;28;96710;-42
2021/12/21 03:47:04;;;;;;;1.48;1.17;;;;;;;0.08;84.88;102900.56;4977264;28;96791;-41
2021/12/21 03:52:02;;;;;;;3.05;2.00;;;;;;;0.02;85.62;102892.47;4977053;28;99491;-42
2021/12/21 03:54:28;;;;;;;1.45;1.27;;;;;;;0.03;85.46;102910.25;4975886;28;96550;-42
2021/12/21 03:56:53;;;;;;;0.90;0.80;;;;;;;-0.09;85.27;102890.53;4977263;28;96734;-42
2021/12/21 03:59:20;;;;;;;1.33;1.17;;;;;;;-0.13;85.36;102882.47;4976509;28;99158;-42
2021/12/21 04:01:48;;;;;;;1.27;1.05;;;;;;;-0.06;85.18;102903.91;4977041;28;99262;-42
2021/12/21 04:04:13;;;;;;;2.15;1.33;;;;;;;-0.12;85.22;102887.84;4975976;28;96616;-42
2021/12/21 04:06:39;;;;;;;2.35;1.67;;;;;;;-0.18;85.33;102873.53;4977393;28;96783;-42
2021/12/21 04:09:07;;;;;;;7.97;2.13;;;;;;;-0.08;84.98;102902.97;4976160;28;98889;-42
2021/12/21 04:11:33;;;;;;;2.10;1.42;;;;;;;-0.11;85.06;102891.38;4976914;28;97333;-42
2021/12/21 04:14:00;;;;;;;1.35;1.02;;;;;;;-0.25;85.18;102870.75;4975679;28;96516;-42
2021/12/21 04:16:26;;;;;;;1.50;0.88;;;;;;;-0.32;85.57;102860.00;4975741;28;96816;-42
2021/12/21 04:18:51;;;;;;;1.92;1.30;;;;;;;-0.21;85.20;102874.38;4975363;28;100855;-42
2021/12/21 04:21:16;;;;;;;2.33;1.17;;;;;;;-0.20;85.17;102884.13;4976724;28;103194;-42
2021/12/21 04:23:43;;;;;;;1.55;1.08;;;;;;;-0.29;85.36;102854.69;4976957;28;96743;-42
2021/12/21 04:26:11;;;;;;;2.90;1.27;;;;;;;-0.26;85.20;102858.31;4975710;28;96890;-42
2021/12/21 04:28:37;;;;;;;2.55;1.58;;;;;;;-0.31;85.35;102856.44;4976550;28;98248;-42
2021/12/21 04:31:03;;;;;;;0.70;0.65;;;;;;;-0.31;85.21;102859.09;4975118;28;100975;-41
2021/12/21 04:33:29;;;;;;;2.28;1.65;;;;;;;-0.22;85.89;102873.44;4974936;28;96654;-42
2021/12/21 04:35:55;;;;;;;3.00;1.30;;;;;;;-0.29;85.87;102860.03;4975438;28;96790;-41
2021/12/21 04:38:22;;;;;;;2.22;1.25;;;;;;;-0.23;86.19;102866.34;4976351;28;97858;-42
2021/12/21 04:40:53;;;;;;;0.55;0.45;;;;;;;-0.20;85.87;102859.28;4975904;28;99317;-42
2021/12/21 04:43:19;;;;;;;2.33;1.23;;;;;;;-0.27;86.00;102848.53;4975260;28;96701;-42
2021/12/21 04:45:44;;;;;;;1.27;0.85;;;;;;;-0.17;85.89;102870.88;4976838;28;96823;-42
2021/12/21 04:48:09;;;;;;;1.58;1.25;;;;;;;-0.24;85.95;102859.25;4976127;28;99274;-42
2021/12/21 04:50:35;;;;;;;3.22;1.45;;;;;;;-0.12;86.06;102874.53;4976691;28;97767;-42
2021/12/21 04:53:00;;;;;;;2.00;1.33;;;;;;;-0.22;86.10;102856.59;4975001;28;99133;-41
2021/12/21 04:55:25;;;;;;;0.63;0.38;;;;;;;-0.13;86.01;102874.50;4976046;28;101355;-42
2021/12/21 04:57:51;;;;;;;1.70;1.13;;;;;;;-0.25;86.02;102853.88;4974629;28;121010;-42
2021/12/21 05:00:16;;;;;;;2.33;1.52;;;;;;;-0.13;86.05;102878.03;4975784;28;99174;-42
2021/12/21 05:02:42;;;;;;;0.80;0.80;;;;;;;-0.28;86.36;102840.53;4976340;28;96628;-42
2021/12/21 05:05:08;;;;;;;3.65;2.15;;;;;;;-0.17;85.90;102859.31;4976439;28;96689;-42
2021/12/21 05:07:35;;;;;;;1.50;1.40;;;;;;;-0.13;86.12;102867.38;4975920;28;97384;-42
2021/12/21 05:10:02;;;;;;;1.75;1.15;;;;;;;-0.17;86.12;102856.66;4974435;28;101161;-42
2021/12/21 05:12:28;;;;;;;3.80;2.05;;;;;;;-0.13;86.26;102863.84;4975975;28;96535;-42
2021/12/21 05:14:55;;;;;;;5.70;3.30;;;;;;;-0.16;86.34;102856.69;4976703;28;97131;-42
2021/12/21 05:17:20;;;;;;;3.60;1.85;;;;;;;-0.12;86.29;102869.19;4975879;28;98154;-42
2021/12/21 05:19:46;;;;;;;4.07;2.05;;;;;;;-0.13;86.09;102861.16;4975727;28;99054;-41
2021/12/21 05:22:12;;;;;;;1.73;1.63;;;;;;;-0.26;86.06;102844.13;4975415;28;96719;-42
2021/12/21 05:24:38;;;;;;;2.95;1.50;;;;;;;-0.22;86.28;102853.91;4976137;28;96750;-42
2021/12/21 05:27:03;;;;;;;3.92;2.40;;;;;;;-0.16;85.79;102869.13;4975656;28;97927;-42
2021/12/21 05:29:31;;;;;;;1.83;1.10;;;;;;;-0.21;86.01;102861.06;4975641;28;97878;-42
2021/12/21 05:31:58;;;;;;;3.10;2.47;;;;;;;-0.26;85.75;102852.09;4975780;28;96657;-42
2021/12/21 05:34:24;;;;;;;1.42;1.02;;;;;;;-0.23;85.79;102877.00;4974386;28;96856;-42
2021/12/21 05:36:49;;;;;;;1.67;1.52;;;;;;;-0.41;86.13;102835.88;4975622;28;98134;-42
2021/12/21 05:39:19;;;;;;;2.15;1.27;;;;;;;-0.29;86.01;102860.91;4975107;28;114471;-42
2021/12/21 05:41:55;;;;;;;5.03;2.38;;;;;;;-0.29;85.80;102863.56;4975619;28;96692;-42
2021/12/21 05:44:23;;;;;;;2.90;2.10;;;;;;;-0.36;85.90;102855.47;4974572;28;96718;-42
2021/12/21 05:46:54;;;;;;;1.35;0.85;;;;;;;-0.32;85.68;102868.84;4974816;28;99143;-42
2021/12/21 05:49:20;;;;;;;1.92;1.45;;;;;;;-0.33;85.73;102868.84;4974028;28;101072;-42
2021/12/21 05:51:46;;;;;;;13.32;1.17;;;;;;;-0.32;85.73;102868.84;4974291;28;96511;-42
2021/12/21 05:54:12;;;;;;;3.75;2.00;;;;;;;-0.44;85.72;102850.91;4975527;28;96818;-41
2021/12/21 05:56:38;;;;;;;1.92;1.60;;;;;;;-0.32;86.05;102873.31;4973713;28;101272;-42
2021/12/21 05:59:03;;;;;;;4.03;1.90;;;;;;;-0.36;85.95;102863.47;4974664;28;107385;-42
2021/12/21 06:01:31;;;;;;;4.43;2.05;;;;;;;-0.36;85.93;102864.34;4975453;28;96500;-43
2021/12/21 06:03:56;;;;;;;1.23;1.13;;;;;;;-0.47;86.21;102848.22;4974210;28;96825;-42
2021/12/21 06:06:21;;;;;;;3.10;2.42;;;;;;;-0.51;86.11;102843.69;4974933;28;99257;-42
2021/12/21 06:08:49;;;;;;;2.30;1.58;;;;;;;-0.46;86.23;102847.34;4974587;28;117448;-42
2021/12/21 06:11:15;;;;;;;1.15;0.95;;;;;;;-0.35;86.04;102860.84;4973408;28;96618;-42
2021/12/21 06:22:43;;;;;;;1.95;1.40;;;;;;;-0.47;85.94;102848.22;4974835;28;97362;-42
2021/12/21 06:27:24;;;;;;;1.65;1.02;;;;;;;-0.52;86.00;102851.69;4975034;28;97133;-42
2021/12/21 06:29:49;;;;;;;1.90;1.35;;;;;;;-0.57;85.68;102838.31;4975038;28;101024;-41
2021/12/21 06:32:15;;;;;;;3.92;1.75;;;;;;;-0.61;85.83;102844.44;4975218;28;96675;-42
2021/12/21 06:34:41;;;;;;;4.60;1.77;;;;;;;-0.56;86.08;102845.41;4975387;28;96876;-42
2021/12/21 06:37:07;;;;;;;2.25;1.80;;;;;;;-0.46;86.17;102860.66;4974029;28;99429;-42
2021/12/21 06:39:33;;;;;;;3.40;2.42;;;;;;;-0.47;86.02;102863.31;4974453;28;99313;-42
2021/12/21 06:41:59;;;;;;;1.77;1.38;;;;;;;-0.60;85.82;102853.31;4973596;28;96547;-41
2021/12/21 06:44:24;;;;;;;3.13;2.45;;;;;;;-0.50;85.76;102868.56;4975044;28;96797;-42
2021/12/21 06:47:06;;;;;;;2.83;2.35;;;;;;;-0.55;85.79;102862.25;4974617;28;98060;-42
2021/12/21 06:52:17;;;;;;;3.00;2.45;;;;;;;-0.52;86.14;102879.19;4975144;28;96596;-42
2021/12/21 06:54:42;;;;;;;5.03;3.47;;;;;;;-0.59;85.57;102871.97;4975222;28;96798;-42
2021/12/21 06:57:08;;;;;;;6.63;4.05;;;;;;;-0.65;85.43;102864.75;4974033;28;99251;-42
2021/12/21 06:59:33;;;;;;;2.80;2.17;;;;;;;-0.55;85.70;102883.56;4973380;28;127220;-42
2021/12/21 07:01:59;;;;;;;2.28;1.35;;;;;;;-0.55;85.65;102886.22;4974026;28;96514;-42
2021/12/21 07:04:24;;;;;;;3.67;1.83;;;;;;;-0.75;85.43;102852.16;4974873;28;96851;-42
2021/12/21 07:06:53;;;;;;;2.53;2.25;;;;;;;-0.71;85.31;102874.41;4974348;28;97577;-42
2021/12/21 07:11:47;;;;;;;4.60;2.28;;;;;;;-0.63;85.42;102890.50;4974737;28;96546;-41
2021/12/21 07:19:44;;;;;;;2.17;1.52;;;;;;;-0.77;85.84;102861.88;4978495;28;97037;-42
2021/12/21 07:22:09;;;;;;;3.25;1.30;;;;;;;-0.80;85.42;102866.28;4977869;28;96569;-42
2021/12/21 07:24:35;;;;;;;3.22;1.83;;;;;;;-0.72;85.73;102885.91;4978073;28;96688;-42
2021/12/21 07:27:00;;;;;;;1.10;1.02;;;;;;;-0.79;85.53;102874.25;4977087;28;97883;-42
2021/12/21 07:29:25;;;;;;;3.97;1.98;;;;;;;-0.81;85.61;102867.13;4977600;28;97564;-42
2021/12/21 07:31:51;;;;;;;2.85;1.80;;;;;;;-0.87;85.56;102866.16;4977727;28;96577;-42
2021/12/21 07:34:17;;;;;;;2.13;1.60;;;;;;;-0.81;85.86;102881.34;4976318;28;96798;-42
2021/12/21 07:36:45;;;;;;;2.60;1.48;;;;;;;-0.85;86.15;102874.16;4977239;28;99251;-42
2021/12/21 07:39:14;;;;;;;3.13;1.92;;;;;;;-0.77;85.97;102875.19;4977206;28;97875;-42
2021/12/21 07:41:41;;;;;;;2.67;1.45;;;;;;;-0.73;85.99;102884.13;4977303;28;96632;-42
2021/12/21 07:44:07;;;;;;;8.15;3.63;;;;;;;-0.83;86.01;102864.44;4976733;28;96869;-42
2021/12/21 07:46:33;;;;;;;5.10;3.33;;;;;;;-0.82;86.08;102857.38;4976109;28;126288;-42
2021/12/21 07:48:59;;;;;;;6.10;2.95;;;;;;;-0.78;86.40;102864.53;4975730;28;101231;-42
2021/12/21 07:51:24;;;;;;;20.20;4.78;;;;;;;-0.80;85.91;102860.94;4977180;28;96699;-42
2021/12/21 07:53:51;;;;;;;9.27;4.40;;;;;;;-0.77;85.99;102866.31;4977582;28;96768;-41
2021/12/21 07:56:17;;;;;;;5.93;3.25;;;;;;;-0.80;85.81;102861.84;4975321;28;100984;-42
2021/12/21 07:58:44;;;;;;;8.48;5.32;;;;;;;-0.72;85.69;102881.47;4975265;28;101172;-41
2021/12/21 08:01:10;;;;;;;16.13;7.65;;;;;;;-0.91;85.55;102858.97;4977337;28;96525;-42
2021/12/21 08:03:35;;;;;;;5.95;3.83;;;;;;;-0.81;85.94;102868.03;4977695;28;96581;-41
2021/12/21 08:06:04;;;;;;;5.47;3.60;;;;;;;-0.81;85.92;102869.78;4976687;28;99361;-42
2021/12/21 08:08:30;;;;;;;2.65;2.45;;;;;;;-0.78;85.72;102886.72;4975740;28;100736;-42
2021/12/21 08:11:17;;;;;;;10.68;2.90;;;;;;;-0.80;85.94;102883.13;4975868;28;96741;-42
2021/12/21 08:13:47;;;;;;;4.53;2.35;;;;;;;-0.70;86.11;102902.81;4977165;28;96635;-42
2021/12/21 08:16:12;;;;;;;1.55;1.20;;;;;;;-0.71;85.66;102898.38;4974920;28;100857;-41
2021/12/21 08:18:39;;;;;;;3.08;1.98;;;;;;;-0.72;85.94;102901.88;4976782;28;97489;-41
2021/12/21 08:21:04;;;;;;;9.68;0.93;;;;;;;-0.72;86.05;102902.78;4975485;28;96582;-43
2021/12/21 08:23:30;;;;;;;10.60;3.60;;;;;;;-0.77;85.76;102890.25;4976952;28;96886;-42
2021/12/21 08:25:56;;;;;;;0.95;0.93;;;;;;;-0.66;85.91;102921.53;4976807;28;97502;-41
2021/12/21 08:28:22;;;;;;;4.57;2.92;;;;;;;-0.69;86.08;102918.81;4975052;28;100847;-41
2021/12/21 08:30:47;;;;;;;1.88;1.63;;;;;;;-0.75;85.94;102905.38;4975545;28;96475;-42
2021/12/21 08:33:12;;;;;;;10.80;4.80;;;;;;;-0.65;86.03;102922.41;4976931;28;97771;-42
2021/12/21 08:35:39;;;;;;;3.90;3.17;;;;;;;-0.67;85.78;102916.16;4975964;28;121738;-42
2021/12/21 08:38:06;;;;;;;23.58;5.45;;;;;;;-0.69;85.70;102916.16;4976168;28;99633;-41
2021/12/21 08:40:39;;;;;;;2.22;1.60;;;;;;;-0.70;85.86;102910.78;4975942;28;96479;-42
2021/12/21 08:43:14;;;;;;;4.75;2.00;;;;;;;-0.71;85.83;102906.34;4976782;28;96557;-41
2021/12/21 08:45:41;;;;;;;2.45;1.85;;;;;;;-0.68;85.67;102911.72;4976552;28;97835;-42
2021/12/21 08:48:08;;;;;;;1.15;1.05;;;;;;;-0.58;85.86;102924.31;4974751;28;101053;-42
2021/12/21 08:50:34;;;;;;;1.67;1.58;;;;;;;-0.64;85.76;102910.91;4975063;28;96731;-42
2021/12/21 08:53:00;;;;;;;1.42;0.73;;;;;;;-0.55;85.75;102928.78;4976363;28;96830;-41
2021/12/21 08:55:26;;;;;;;2.65;1.77;;;;;;;-0.68;85.78;102893.09;4975874;28;97999;-42
2021/12/21 08:57:52;;;;;;;3.25;1.48;;;;;;;-0.54;85.88;102911.97;4975944;28;99278;-41
2021/12/21 09:00:17;;;;;;;2.28;1.60;;;;;;;-0.51;85.99;102928.88;4974982;28;96513;-42
2021/12/21 09:02:43;;;;;;;0.95;0.85;;;;;;;-0.54;85.97;102923.50;4976545;28;96746;-41
2021/12/21 09:05:16;;;;;;;17.83;3.25;;;;;;;-0.50;86.05;102927.09;4974038;28;101058;-42
2021/12/21 09:07:46;;;;;;;3.47;2.35;;;;;;;-0.59;85.95;102895.03;4976164;28;96901;-41
2021/12/21 09:10:13;;;;;;;1.75;1.63;;;;;;;-0.51;86.03;102909.34;4976381;28;96611;-42
2021/12/21 09:12:39;;;;;;;7.07;2.75;;;;;;;-0.58;86.27;102900.38;4974683;28;96599;-42
2021/12/21 09:15:07;;;;;;;3.38;1.92;;;;;;;-0.52;86.27;102913.78;4974351;28;101296;-42
2021/12/21 09:17:32;;;;;;;4.80;2.53;;;;;;;-0.44;86.35;102921.91;4974007;28;102566;-42
2021/12/21 09:19:58;;;;;;;3.28;2.25;;;;;;;-0.41;86.26;102916.63;4976070;28;96482;-42
2021/12/21 09:22:23;;;;;;;3.70;2.45;;;;;;;-0.51;86.44;102894.28;4976014;28;96859;-42
2021/12/21 09:24:49;;;;;;;0.68;0.63;;;;;;;-0.40;86.34;102917.53;4975773;28;98003;-41
2021/12/21 09:27:16;;;;;;;1.95;1.58;;;;;;;-0.42;86.14;102922.84;4975441;28;99249;-41
2021/12/21 09:29:41;;;;;;;2.58;1.70;;;;;;;-0.46;86.38;102910.34;4974085;28;96692;-41
2021/12/21 09:32:07;;;;;;;3.65;1.73;;;;;;;-0.55;86.05;102883.56;4975759;28;97556;-42
2021/12/21 09:34:33;;;;;;;4.18;2.67;;;;;;;-0.32;86.27;102918.56;4975445;28;99234;-42
2021/12/21 09:36:59;;;;;;;6.15;3.03;;;;;;;-0.41;86.26;102891.78;4975474;28;97547;-41
2021/12/21 09:39:24;;;;;;;2.67;2.17;;;;;;;-0.33;86.25;102901.69;4973579;28;96855;-41
2021/12/21 09:41:50;;;;;;;3.15;2.35;;;;;;;-0.36;86.28;102890.09;4975982;28;96751;-41
2021/12/21 09:44:16;;;;;;;3.38;2.33;;;;;;;-0.30;86.41;102892.84;4975482;28;97367;-42
2021/12/21 09:46:41;;;;;;;1.05;0.88;;;;;;;-0.16;86.19;102912.63;4974021;28;101188;-42
2021/12/21 09:49:07;;;;;;;1.65;1.40;;;;;;;-0.26;85.79;102876.97;4976120;28;96521;-41
2021/12/21 09:51:32;;;;;;;7.95;2.80;;;;;;;-0.08;85.97;102887.00;4975175;28;108006;-41
2021/12/21 09:53:58;;;;;;;3.25;2.63;;;;;;;-0.05;85.93;102886.13;4974899;28;97923;-42
2021/12/21 09:56:23;;;;;;;4.43;3.17;;;;;;;0.03;85.80;102903.16;4973652;28;100834;-42
2021/12/21 09:58:49;;;;;;;1.90;1.73;;;;;;;0.00;85.47;102889.78;4975242;28;96764;-42
2021/12/21 10:01:16;;;;;;;3.20;1.98;;;;;;;0.07;85.39;102905.00;4975657;28;96744;-42
2021/12/21 10:03:42;;;;;;;1.90;0.85;;;;;;;0.05;85.79;102888.09;4973739;28;100964;-42
2021/12/21 10:06:12;;;;;;;3.33;1.90;;;;;;;0.09;85.62;102878.34;4975127;28;97889;-41
2021/12/21 10:08:39;;;;;;;8.75;2.25;;;;;;;0.17;85.65;102884.72;4974108;28;96785;-42
2021/12/21 10:11:06;;;;;;;1.77;1.52;;;;;;;0.34;85.47;102898.28;4975820;28;96810;-41
2021/12/21 10:13:35;;;;;;;1.98;1.17;;;;;;;0.33;85.29;102894.69;4973715;28;98763;-42
2021/12/21 10:16:04;;;;;;;3.55;2.60;;;;;;;0.34;85.15;102888.50;4973701;28;100519;-41
2021/12/21 10:18:33;;;;;;;4.13;3.00;;;;;;;0.47;84.83;102912.66;4973330;28;96676;-41
2021/12/21 10:21:01;;;;;;;4.72;2.55;;;;;;;0.56;84.74;102912.78;4973923;28;96815;-41
2021/12/21 10:23:28;;;;;;;14.43;2.15;;;;;;;0.49;84.33;102895.81;4973358;28;100855;-41
2021/12/21 10:26:00;;;;;;;4.18;2.88;;;;;;;0.62;84.83;102907.50;4973389;28;101103;-41
2021/12/21 10:28:39;;;;;;;3.35;1.92;;;;;;;0.76;84.47;102908.63;4973620;28;96677;-41
2021/12/21 10:31:10;;;;;;;2.83;1.42;;;;;;;0.77;84.08;102890.84;4973791;28;96746;-42
2021/12/21 10:33:37;;;;;;;3.13;2.30;;;;;;;0.79;83.84;102887.31;4973547;28;100716;-42
2021/12/21 10:36:06;;;;;;;3.88;2.55;;;;;;;0.72;83.76;102871.22;4973851;28;100826;-41
2021/12/21 10:38:35;;;;;;;2.63;2.22;;;;;;;0.94;83.45;102889.25;4973658;28;96575;-41
2021/12/21 10:41:18;;;;;;;3.70;2.33;;;;;;;0.97;83.43;102880.38;4973222;28;96799;-41
2021/12/21 10:43:56;;;;;;;2.80;1.50;;;;;;;1.07;83.35;102876.91;4972919;28;100772;-41
2021/12/21 10:46:21;;;;;;;3.42;2.30;;;;;;;1.21;83.03;102861.94;4973290;28;100897;-42
2021/12/21 10:48:49;;;;;;;3.35;2.65;;;;;;;1.39;82.57;102866.56;4974990;28;96560;-41
2021/12/21 10:51:15;;;;;;;2.53;2.03;;;;;;;1.42;82.51;102849.69;4973704;28;96784;-41
2021/12/21 10:53:47;;;;;;;7.03;1.70;;;;;;;1.41;82.05;102854.13;4978268;28;97402;-42
2021/12/21 10:56:13;;;;;;;3.95;2.10;;;;;;;1.62;82.08;102842.75;4976676;28;101165;-42
2021/12/21 10:58:45;;;;;;;4.05;2.67;;;;;;;2.22;81.04;102855.63;4976704;28;96863;-42
2021/12/21 11:01:13;;;;;;;1.80;1.27;;;;;;;2.51;78.30;102851.28;4978893;28;96659;-42
2021/12/21 11:03:49;;;;;;;6.15;2.13;;;;;;;2.82;77.08;102848.72;4977857;28;97434;-42
2021/12/21 11:06:34;;;;;;;3.90;2.55;;;;;;;3.09;76.14;102836.28;4976442;28;101088;-41
2021/12/21 11:09:04;;;;;;;2.53;2.05;;;;;;;3.48;75.37;102851.50;4977765;28;96702;-42
2021/12/21 11:11:43;;;;;;;5.15;2.35;;;;;;;3.69;73.64;102844.34;4978104;28;96794;-42
2021/12/21 11:14:14;;;;;;;3.20;2.25;;;;;;;3.74;73.57;102805.94;4977695;28;97936;-41
2021/12/21 11:16:48;;;;;;;9.85;3.97;;;;;;;4.14;73.38;102824.59;4977987;28;97383;-42
2021/12/21 11:19:16;;;;;;;14.23;4.18;;;;;;;4.38;72.22;102841.50;4976680;28;96630;-41
2021/12/21 11:21:43;;;;;;;8.43;5.13;;;;;;;4.14;72.72;102829.97;4976526;28;96897;-42
2021/12/21 11:24:11;;;;;;;8.35;5.18;;;;;;;3.79;73.90;102827.34;4976359;28;101284;-42
2021/12/21 11:26:38;;;;;;;10.75;5.22;;;;;;;3.35;73.74;102823.81;4977768;28;97914;-42
2021/12/21 11:29:08;;;;;;;11.95;5.00;;;;;;;3.20;74.98;102839.88;4976667;28;96576;-42
2021/12/21 11:31:42;;;;;;;3.38;3.00;;;;;;;2.93;76.01;102824.66;4977887;28;96761;-42
2021/12/21 11:34:14;;;;;;;4.15;2.63;;;;;;;2.81;76.49;102824.63;4975615;28;100710;-42
2021/12/21 11:39:31;;;;;;;3.92;1.92;;;;;;;2.68;76.35;102832.63;4977821;28;96720;-42
2021/12/21 11:41:57;;;;;;;3.70;2.67;;;;;;;2.72;77.44;102837.09;4977518;28;96826;-42
2021/12/21 11:44:37;;;;;;;4.53;2.25;;;;;;;2.72;77.32;102810.34;4977374;28;98117;-42
2021/12/21 11:47:07;;;;;;;2.10;1.30;;;;;;;3.23;74.82;102821.13;4975928;28;100856;-42
2021/12/21 11:49:45;;;;;;;3.55;2.25;;;;;;;3.66;72.99;102815.75;4976100;28;96552;-42
2021/12/21 11:52:14;;;;;;;4.35;3.13;;;;;;;4.07;72.88;102800.50;4976647;28;96726;-42
2021/12/21 11:55:05;;;;;;;5.47;3.17;;;;;;;4.44;70.82;102795.91;4975668;28;100805;-42
2021/12/21 11:57:43;;;;;;;3.97;2.95;;;;;;;4.51;71.70;102794.97;4976038;28;101150;-42
2021/12/21 12:00:12;;;;;;;4.88;3.00;;;;;;;4.63;71.48;102789.53;4975235;28;96779;-42
2021/12/21 12:02:38;;;;;;;2.28;1.45;;;;;;;4.65;69.64;102771.63;4975607;28;96787;-42
2021/12/21 12:05:19;;;;;;;3.33;2.20;;;;;;;4.95;68.29;102784.84;4975641;28;101161;-42
2021/12/21 12:07:44;;;;;;;4.97;2.72;;;;;;;4.93;68.27;102766.06;4976718;28;98888;-42
2021/12/21 12:10:15;;;;;;;6.75;3.65;;;;;;;5.08;69.13;102787.44;4977446;28;96669;-42
2021/12/21 12:12:41;;;;;;;8.50;3.88;;;;;;;5.01;69.17;102795.56;4975775;28;96822;-42
2021/12/21 12:15:09;;;;;;;6.75;2.88;;;;;;;5.09;68.86;102788.34;4977036;28;98018;-42
2021/12/21 12:17:47;;;;;;;3.90;2.60;;;;;;;5.19;66.43;102786.47;4975781;28;101427;-42
2021/12/21 12:20:14;;;;;;;6.28;2.90;;;;;;;5.28;67.54;102789.97;4975777;28;96927;-42
2021/12/21 12:22:45;;;;;;;4.35;2.05;;;;;;;5.40;67.77;102782.72;4977192;28;96750;-42
2021/12/21 12:25:20;;;;;;;1.92;1.67;;;;;;;5.37;66.14;102782.75;4974847;28;100238;-42
2021/12/21 12:27:48;;;;;;;5.47;2.28;;;;;;;5.22;67.16;102768.53;4975280;28;100719;-42
2021/12/21 12:30:16;;;;;;;5.35;2.45;;;;;;;5.42;67.17;102784.47;4975491;28;96674;-42
2021/12/21 12:33:06;;;;;;;3.33;3.00;;;;;;;5.48;67.58;102779.06;4975592;28;96808;-42